Time;durP1;ratioP1;P1;durP2;ratioP2;P2;SDS_P1;SDS_P2;PMS_P1;PMS_P2;Temp;Humidity;BMP_temperature;BMP_pressure;BME280_temperature;BME280_humidity;BME280_pressure;Samples;Min_cycle;Max_cycle;Signal;HPM_P1;HPM_P2
2023/04/17 00:01:41;;;;;;;2.53;1.83;;;;;;;;;;4972548;28;20030;-63
2023/04/17 00:04:09;;;;;;;2.88;2.10;;;;;;;;;;4972344;28;20556;-66
2023/04/17 00:06:36;;;;;;;3.30;2.13;;;;;;;;;;4972290;28;20525;-66
2023/04/17 00:09:03;;;;;;;3.33;1.88;;;;;;;;;;4972875;28;20019;-64
2023/04/17 00:11:29;;;;;;;5.07;2.20;;;;;;;;;;4971939;28;20559;-66
2023/04/17 00:13:55;;;;;;;4.90;2.03;;;;;;;;;;4970108;28;20419;-64
2023/04/17 00:16:21;;;;;;;3.38;2.10;;;;;;;;;;4970589;28;20041;-63
2023/04/17 00:18:47;;;;;;;4.03;2.30;;;;;;;;;;4970074;28;20023;-63
2023/04/17 00:21:13;;;;;;;2.85;2.20;;;;;;;;;;4970643;28;20029;-65
2023/04/17 00:23:39;;;;;;;3.90;2.35;;;;;;;;;;4970392;28;20027;-63
2023/04/17 00:26:05;;;;;;;3.55;2.55;;;;;;;;;;4970533;28;20050;-66
2023/04/17 00:28:32;;;;;;;5.13;2.15;;;;;;;;;;4970195;28;20019;-65
2023/04/17 00:30:58;;;;;;;4.40;2.88;;;;;;;;;;4970860;28;20031;-63
2023/04/17 00:33:24;;;;;;;4.00;2.60;;;;;;;;;;4971155;28;20090;-64
2023/04/17 00:35:51;;;;;;;4.13;2.30;;;;;;;;;;4971955;28;20109;-63
2023/04/17 00:38:17;;;;;;;4.88;2.63;;;;;;;;;;4972671;28;20394;-63
2023/04/17 00:40:45;;;;;;;3.08;2.38;;;;;;;;;;4972675;28;20387;-64
2023/04/17 00:43:11;;;;;;;5.60;2.83;;;;;;;;;;4971887;28;20034;-63
2023/04/17 00:45:37;;;;;;;4.43;2.88;;;;;;;;;;4971882;28;20038;-63
2023/04/17 00:48:04;;;;;;;4.05;2.80;;;;;;;;;;4971768;28;20384;-65
2023/04/17 00:50:30;;;;;;;5.70;2.67;;;;;;;;;;4972136;28;20086;-63
2023/04/17 00:52:57;;;;;;;5.28;3.00;;;;;;;;;;4972541;28;20031;-65
2023/04/17 00:55:24;;;;;;;5.13;3.65;;;;;;;;;;4972010;28;20030;-66
2023/04/17 00:57:50;;;;;;;4.38;3.35;;;;;;;;;;4971769;28;20392;-66
2023/04/17 01:00:17;;;;;;;6.30;3.15;;;;;;;;;;4971607;28;20046;-66
2023/04/17 01:02:43;;;;;;;4.22;3.35;;;;;;;;;;4971525;28;20105;-64
2023/04/17 01:05:09;;;;;;;5.18;4.00;;;;;;;;;;4972108;28;20034;-66
2023/04/17 01:07:35;;;;;;;5.05;3.38;;;;;;;;;;4971814;28;20022;-66
2023/04/17 01:10:02;;;;;;;4.93;3.58;;;;;;;;;;4972224;28;20475;-66
2023/04/17 01:12:28;;;;;;;4.90;3.13;;;;;;;;;;4972209;28;22023;-67
2023/04/17 01:14:55;;;;;;;6.57;3.90;;;;;;;;;;4971733;28;20039;-65
2023/04/17 01:17:21;;;;;;;7.00;4.15;;;;;;;;;;4971699;28;20027;-64
2023/04/17 01:19:48;;;;;;;7.38;4.35;;;;;;;;;;4971614;28;20446;-67
2023/04/17 01:22:23;;;;;;;6.97;4.03;;;;;;;;;;4971842;28;20081;-66
2023/04/17 01:24:49;;;;;;;5.05;4.03;;;;;;;;;;4971840;28;20030;-65
2023/04/17 01:27:15;;;;;;;6.53;4.18;;;;;;;;;;4975404;28;20035;-66
2023/04/17 01:29:42;;;;;;;5.88;4.68;;;;;;;;;;4975560;28;20373;-65
2023/04/17 01:32:08;;;;;;;6.13;4.72;;;;;;;;;;4975650;28;20077;-67
2023/04/17 01:34:34;;;;;;;5.80;4.43;;;;;;;;;;4975306;28;20038;-66
2023/04/17 01:37:01;;;;;;;6.78;5.13;;;;;;;;;;4975074;28;20019;-65
2023/04/17 01:39:27;;;;;;;5.75;4.40;;;;;;;;;;4975861;28;20030;-65
2023/04/17 01:41:53;;;;;;;7.13;5.05;;;;;;;;;;4975152;28;20030;-65
2023/04/17 01:44:19;;;;;;;5.97;4.55;;;;;;;;;;4975181;28;20105;-63
2023/04/17 01:46:45;;;;;;;5.68;4.65;;;;;;;;;;4975143;28;20034;-62
2023/04/17 01:49:11;;;;;;;5.93;4.55;;;;;;;;;;4975434;28;20085;-64
2023/04/17 01:51:37;;;;;;;6.53;5.10;;;;;;;;;;4975078;28;20027;-64
2023/04/17 01:54:03;;;;;;;5.68;4.35;;;;;;;;;;4975278;28;20110;-63
2023/04/17 01:56:29;;;;;;;7.80;5.13;;;;;;;;;;4975454;28;20455;-64
2023/04/17 01:58:55;;;;;;;7.22;5.00;;;;;;;;;;4975505;28;20022;-66
2023/04/17 02:01:21;;;;;;;7.00;4.82;;;;;;;;;;4974866;28;20073;-64
2023/04/17 02:03:47;;;;;;;6.35;4.90;;;;;;;;;;4974752;28;20027;-63
2023/04/17 02:06:15;;;;;;;7.15;4.93;;;;;;;;;;4974858;28;20038;-63
2023/04/17 02:08:41;;;;;;;6.75;4.80;;;;;;;;;;4974866;28;20035;-63
2023/04/17 02:11:07;;;;;;;5.75;4.45;;;;;;;;;;4975099;28;20030;-63
2023/04/17 02:13:33;;;;;;;6.00;4.50;;;;;;;;;;4975074;28;20463;-64
2023/04/17 02:15:59;;;;;;;6.43;4.50;;;;;;;;;;4974872;28;20042;-63
2023/04/17 02:18:25;;;;;;;5.53;4.63;;;;;;;;;;4974852;28;20039;-63
2023/04/17 02:20:51;;;;;;;7.18;5.20;;;;;;;;;;4974259;28;20454;-63
2023/04/17 02:23:17;;;;;;;6.95;5.43;;;;;;;;;;4974763;28;20110;-64
2023/04/17 02:25:44;;;;;;;6.38;5.03;;;;;;;;;;4973995;28;20090;-63
2023/04/17 02:28:10;;;;;;;6.93;5.22;;;;;;;;;;4974528;28;20033;-63
2023/04/17 02:30:36;;;;;;;8.15;5.32;;;;;;;;;;4974133;28;20038;-63
2023/04/17 02:33:02;;;;;;;7.10;4.70;;;;;;;;;;4974381;28;20027;-65
2023/04/17 02:35:31;;;;;;;7.53;5.70;;;;;;;;;;4974289;28;20030;-66
2023/04/17 02:37:57;;;;;;;6.95;5.30;;;;;;;;;;4974630;28;20027;-66
2023/04/17 02:40:23;;;;;;;6.18;4.97;;;;;;;;;;4974443;28;20042;-67
2023/04/17 02:42:49;;;;;;;10.00;5.40;;;;;;;;;;4973803;28;20125;-66
2023/04/17 02:45:15;;;;;;;6.13;4.90;;;;;;;;;;4974294;28;20114;-65
2023/04/17 02:47:41;;;;;;;7.75;5.65;;;;;;;;;;4973916;28;20023;-66
2023/04/17 02:50:08;;;;;;;6.88;4.85;;;;;;;;;;4974422;28;20037;-66
2023/04/17 02:52:34;;;;;;;6.07;4.68;;;;;;;;;;4974392;28;20054;-64
2023/04/17 02:55:00;;;;;;;7.82;5.10;;;;;;;;;;4974654;28;20073;-65
2023/04/17 02:57:26;;;;;;;5.95;4.63;;;;;;;;;;4974507;28;20142;-65
2023/04/17 02:59:52;;;;;;;7.13;4.82;;;;;;;;;;4973816;28;20219;-66
2023/04/17 03:02:21;;;;;;;6.50;5.22;;;;;;;;;;4973932;28;20019;-66
2023/04/17 03:04:50;;;;;;;6.60;4.90;;;;;;;;;;4973680;28;20035;-67
2023/04/17 03:07:17;;;;;;;7.13;5.07;;;;;;;;;;4973941;28;20503;-66
2023/04/17 03:09:46;;;;;;;6.30;4.95;;;;;;;;;;4973754;28;20097;-65
2023/04/17 03:12:13;;;;;;;5.57;4.78;;;;;;;;;;4973697;28;20112;-64
2023/04/17 03:14:39;;;;;;;6.40;5.28;;;;;;;;;;4973665;28;20133;-63
2023/04/17 03:17:05;;;;;;;6.32;4.97;;;;;;;;;;4973788;28;20562;-66
2023/04/17 03:19:31;;;;;;;6.20;5.10;;;;;;;;;;4973551;28;20054;-63
2023/04/17 03:21:57;;;;;;;8.25;4.70;;;;;;;;;;4974271;28;20455;-65
2023/04/17 03:24:23;;;;;;;7.63;5.18;;;;;;;;;;4973509;28;20106;-65
2023/04/17 03:26:49;;;;;;;8.65;5.32;;;;;;;;;;4972296;28;20086;-66
2023/04/17 03:29:15;;;;;;;6.30;4.90;;;;;;;;;;4973399;28;20041;-65
2023/04/17 03:31:41;;;;;;;6.30;5.10;;;;;;;;;;4973214;28;20026;-65
2023/04/17 03:34:07;;;;;;;6.55;4.90;;;;;;;;;;4973890;28;20446;-65
2023/04/17 03:36:33;;;;;;;6.75;5.18;;;;;;;;;;4973049;28;20031;-65
2023/04/17 03:38:59;;;;;;;5.70;4.82;;;;;;;;;;4973481;28;20353;-65
2023/04/17 03:41:25;;;;;;;5.93;5.05;;;;;;;;;;4973544;28;20027;-66
2023/04/17 03:43:51;;;;;;;6.70;5.53;;;;;;;;;;4973161;28;20049;-66
2023/04/17 03:46:17;;;;;;;5.72;5.03;;;;;;;;;;4973084;28;20034;-66
2023/04/17 03:48:43;;;;;;;8.20;5.18;;;;;;;;;;4972447;28;20018;-63
2023/04/17 03:51:09;;;;;;;6.22;4.97;;;;;;;;;;4973356;28;20038;-65
2023/04/17 03:53:35;;;;;;;6.55;5.43;;;;;;;;;;4972935;28;20106;-65
2023/04/17 03:56:01;;;;;;;6.15;4.97;;;;;;;;;;4973054;28;20038;-63
2023/04/17 03:58:27;;;;;;;6.78;5.07;;;;;;;;;;4973138;28;20062;-63
2023/04/17 04:00:54;;;;;;;7.72;5.78;;;;;;;;;;4971203;28;20456;-64
2023/04/17 04:03:23;;;;;;;7.47;5.72;;;;;;;;;;4972705;28;20030;-63
2023/04/17 04:05:49;;;;;;;6.28;5.47;;;;;;;;;;4972100;28;20043;-63
2023/04/17 04:08:15;;;;;;;8.07;6.00;;;;;;;;;;4972996;28;20023;-65
2023/04/17 04:10:43;;;;;;;7.05;6.13;;;;;;;;;;4972773;28;20023;-65
2023/04/17 04:13:09;;;;;;;8.52;6.10;;;;;;;;;;4972954;28;20027;-66
2023/04/17 04:15:36;;;;;;;8.50;6.32;;;;;;;;;;4972639;28;20424;-66
2023/04/17 04:18:02;;;;;;;8.48;6.28;;;;;;;;;;4973352;28;20360;-65
2023/04/17 04:20:28;;;;;;;10.23;6.82;;;;;;;;;;4972682;28;20023;-66
2023/04/17 04:22:56;;;;;;;8.65;6.50;;;;;;;;;;4972245;28;20109;-66
2023/04/17 04:25:22;;;;;;;8.32;6.82;;;;;;;;;;4972232;28;20499;-65
2023/04/17 04:27:48;;;;;;;9.57;7.57;;;;;;;;;;4972604;28;20034;-65
2023/04/17 04:30:18;;;;;;;8.63;6.82;;;;;;;;;;4972338;28;20379;-65
2023/04/17 04:32:44;;;;;;;8.32;7.05;;;;;;;;;;4972490;28;20030;-65
2023/04/17 04:35:10;;;;;;;8.57;7.07;;;;;;;;;;4972474;28;20117;-64
2023/04/17 04:37:36;;;;;;;9.15;7.45;;;;;;;;;;4971830;28;20497;-65
2023/04/17 04:40:09;;;;;;;10.20;7.68;;;;;;;;;;4972391;28;20105;-65
2023/04/17 04:42:35;;;;;;;10.45;7.82;;;;;;;;;;4971885;28;20053;-65
2023/04/17 04:45:02;;;;;;;10.65;7.30;;;;;;;;;;4972116;28;20117;-64
2023/04/17 04:47:27;;;;;;;10.48;7.90;;;;;;;;;;4972541;28;20031;-65
2023/04/17 04:49:54;;;;;;;9.55;7.90;;;;;;;;;;4971855;28;20038;-66
2023/04/17 04:52:20;;;;;;;9.10;7.50;;;;;;;;;;4971832;28;20162;-64
2023/04/17 04:54:46;;;;;;;8.88;7.65;;;;;;;;;;4962450;28;20059;-65
2023/04/17 04:57:12;;;;;;;9.77;7.60;;;;;;;;;;4953129;29;20114;-64
2023/04/17 04:59:38;;;;;;;11.52;8.93;;;;;;;;;;4952846;28;20117;-65
2023/04/17 05:02:04;;;;;;;10.40;7.72;;;;;;;;;;4971104;28;20046;-66
2023/04/17 05:04:30;;;;;;;12.63;8.52;;;;;;;;;;4972267;28;20133;-63
2023/04/17 05:06:56;;;;;;;9.20;8.23;;;;;;;;;;4971907;28;20023;-66
2023/04/17 05:09:22;;;;;;;11.20;8.38;;;;;;;;;;4972135;28;20027;-65
2023/04/17 05:11:48;;;;;;;10.23;7.85;;;;;;;;;;4971409;28;20438;-64
2023/04/17 05:14:14;;;;;;;8.93;7.72;;;;;;;;;;4971885;28;20089;-65
2023/04/17 05:16:41;;;;;;;12.88;8.38;;;;;;;;;;4971031;28;20026;-65
2023/04/17 05:19:06;;;;;;;10.93;8.38;;;;;;;;;;4972194;28;20070;-64
2023/04/17 05:21:32;;;;;;;11.43;8.95;;;;;;;;;;4967847;28;20491;-63
2023/04/17 05:23:58;;;;;;;9.57;7.80;;;;;;;;;;4959558;28;20110;-65
2023/04/17 05:26:25;;;;;;;10.38;8.25;;;;;;;;;;4967762;28;20035;-64
2023/04/17 05:28:51;;;;;;;8.77;7.40;;;;;;;;;;4971484;28;20035;-63
2023/04/17 05:31:17;;;;;;;10.57;8.40;;;;;;;;;;4972230;28;20031;-64
2023/04/17 05:33:43;;;;;;;11.77;8.88;;;;;;;;;;4970840;28;20114;-64
2023/04/17 05:36:09;;;;;;;10.55;8.27;;;;;;;;;;4972173;28;20535;-66
2023/04/17 05:38:35;;;;;;;11.18;8.20;;;;;;;;;;4970976;28;20060;-64
2023/04/17 05:41:01;;;;;;;10.45;8.45;;;;;;;;;;4972003;28;20494;-65
2023/04/17 05:43:27;;;;;;;14.68;9.20;;;;;;;;;;4972073;28;20043;-64
2023/04/17 05:45:53;;;;;;;10.55;8.77;;;;;;;;;;4971773;28;20042;-64
2023/04/17 05:48:20;;;;;;;12.02;9.02;;;;;;;;;;4972095;28;20019;-64
2023/04/17 05:50:46;;;;;;;12.15;9.13;;;;;;;;;;4971908;28;20089;-65
2023/04/17 05:53:12;;;;;;;12.88;9.23;;;;;;;;;;4971321;28;20479;-64
2023/04/17 05:55:39;;;;;;;12.77;9.35;;;;;;;;;;4971889;28;20471;-64
2023/04/17 05:58:05;;;;;;;13.05;9.75;;;;;;;;;;4971910;28;20019;-64
2023/04/17 06:00:31;;;;;;;11.63;8.52;;;;;;;;;;4971002;28;20046;-64
2023/04/17 06:02:58;;;;;;;11.68;9.48;;;;;;;;;;4972270;28;20391;-64
2023/04/17 06:05:24;;;;;;;14.38;8.98;;;;;;;;;;4971702;28;20043;-64
2023/04/17 06:07:50;;;;;;;12.73;9.52;;;;;;;;;;4971589;28;20584;-64
2023/04/17 06:10:16;;;;;;;12.68;9.43;;;;;;;;;;4971937;28;20496;-64
2023/04/17 06:12:43;;;;;;;15.98;10.00;;;;;;;;;;4974131;28;20026;-64
2023/04/17 06:15:09;;;;;;;13.48;9.15;;;;;;;;;;4973787;28;20030;-64
2023/04/17 06:17:36;;;;;;;14.93;10.10;;;;;;;;;;4974324;28;20074;-64
2023/04/17 06:20:03;;;;;;;14.15;10.07;;;;;;;;;;4973669;28;20447;-64
2023/04/17 06:22:29;;;;;;;13.73;10.07;;;;;;;;;;4975455;28;20051;-64
2023/04/17 06:24:55;;;;;;;15.68;11.18;;;;;;;;;;4974271;28;20069;-64
2023/04/17 06:27:21;;;;;;;13.45;9.93;;;;;;;;;;4980576;28;20439;-64
2023/04/17 06:29:47;;;;;;;14.85;10.23;;;;;;;;;;4974406;28;20060;-64
2023/04/17 06:32:13;;;;;;;14.38;10.50;;;;;;;;;;4974178;28;20030;-64
2023/04/17 06:34:39;;;;;;;16.20;10.35;;;;;;;;;;4974065;28;20034;-65
2023/04/17 06:37:05;;;;;;;13.60;10.50;;;;;;;;;;4974851;28;20455;-65
2023/04/17 06:39:32;;;;;;;14.40;11.60;;;;;;;;;;4974247;28;20080;-64
2023/04/17 06:41:58;;;;;;;15.48;10.88;;;;;;;;;;4974668;28;20438;-63
2023/04/17 06:44:24;;;;;;;16.13;12.02;;;;;;;;;;4974385;28;20383;-65
2023/04/17 06:46:52;;;;;;;13.60;10.82;;;;;;;;;;4974522;28;20381;-65
2023/04/17 06:49:18;;;;;;;18.23;13.07;;;;;;;;;;4966583;28;20028;-64
2023/04/17 06:51:46;;;;;;;15.48;12.15;;;;;;;;;;4974078;28;20118;-62
2023/04/17 06:54:12;;;;;;;19.15;13.93;;;;;;;;;;4974587;28;20494;-63
2023/04/17 06:56:38;;;;;;;20.52;14.20;;;;;;;;;;4982617;28;20031;-63
2023/04/17 06:59:04;;;;;;;24.05;14.95;;;;;;;;;;4981629;28;20026;-63
2023/04/17 07:01:30;;;;;;;21.92;14.35;;;;;;;;;;4983756;28;20494;-63
2023/04/17 07:03:56;;;;;;;20.67;15.05;;;;;;;;;;4982743;28;20023;-63
2023/04/17 07:06:23;;;;;;;21.58;14.45;;;;;;;;;;4981622;28;20038;-63
2023/04/17 07:08:49;;;;;;;22.55;14.85;;;;;;;;;;4982777;28;20032;-62
2023/04/17 07:11:15;;;;;;;24.80;16.08;;;;;;;;;;4982511;28;20081;-63
2023/04/17 07:13:41;;;;;;;19.98;14.13;;;;;;;;;;4981455;28;20030;-62
2023/04/17 07:16:07;;;;;;;23.35;15.65;;;;;;;;;;4983308;28;20049;-63
2023/04/17 07:18:33;;;;;;;21.50;13.85;;;;;;;;;;4981720;28;20045;-62
2023/04/17 07:21:00;;;;;;;20.88;14.40;;;;;;;;;;4982064;28;20483;-63
2023/04/17 07:23:26;;;;;;;20.67;13.95;;;;;;;;;;4982137;28;20026;-63
2023/04/17 07:25:52;;;;;;;22.48;15.20;;;;;;;;;;4987670;28;20041;-63
2023/04/17 07:28:18;;;;;;;21.85;14.73;;;;;;;;;;4993344;28;20030;-64
2023/04/17 07:30:44;;;;;;;21.42;14.20;;;;;;;;;;4993128;28;20022;-64
2023/04/17 07:33:10;;;;;;;23.67;15.48;;;;;;;;;;4993261;28;20552;-63
2023/04/17 07:35:36;;;;;;;22.88;15.35;;;;;;;;;;4993108;28;20545;-64
2023/04/17 07:38:03;;;;;;;20.65;14.40;;;;;;;;;;4993240;28;20030;-63
2023/04/17 07:40:29;;;;;;;22.42;15.43;;;;;;;;;;4993405;28;20080;-64
2023/04/17 07:42:55;;;;;;;21.10;16.13;;;;;;;;;;4992834;28;20038;-64
2023/04/17 07:45:22;;;;;;;21.10;15.32;;;;;;;;;;4992972;28;20042;-64
2023/04/17 07:47:48;;;;;;;21.10;14.73;;;;;;;;;;4992748;28;20034;-64
2023/04/17 07:50:14;;;;;;;20.08;15.73;;;;;;;;;;4992984;28;20470;-64
2023/04/17 07:52:40;;;;;;;22.08;16.35;;;;;;;;;;4992835;28;20022;-64
2023/04/17 07:55:06;;;;;;;23.77;15.70;;;;;;;;;;4992918;28;20430;-64
2023/04/17 07:57:32;;;;;;;20.48;15.65;;;;;;;;;;4992591;28;20479;-63
2023/04/17 07:59:58;;;;;;;22.40;15.82;;;;;;;;;;4991464;28;20026;-63
2023/04/17 08:02:25;;;;;;;23.42;16.20;;;;;;;;;;4992713;28;20026;-64
2023/04/17 08:04:51;;;;;;;19.88;15.30;;;;;;;;;;4992579;28;20457;-64
2023/04/17 08:07:19;;;;;;;22.88;16.58;;;;;;;;;;4992772;28;20034;-64
2023/04/17 08:09:45;;;;;;;22.48;15.43;;;;;;;;;;4991546;28;20018;-64
2023/04/17 08:12:11;;;;;;;21.13;16.23;;;;;;;;;;4973153;28;20034;-64
2023/04/17 08:14:38;;;;;;;20.92;15.23;;;;;;;;;;4972988;28;20136;-65
2023/04/17 08:17:06;;;;;;;20.90;16.67;;;;;;;;;;4973061;28;20109;-65
2023/04/17 08:19:32;;;;;;;26.02;16.63;;;;;;;;;;4972989;28;20026;-64
2023/04/17 08:22:07;;;;;;;22.67;16.20;;;;;;;;;;4973427;28;20026;-64
2023/04/17 08:24:33;;;;;;;22.67;15.68;;;;;;;;;;4972619;28;20525;-63
2023/04/17 08:27:00;;;;;;;22.75;15.43;;;;;;;;;;4988280;28;20033;-64
2023/04/17 08:29:26;;;;;;;22.85;15.70;;;;;;;;;;4992355;28;20081;-64
2023/04/17 08:31:52;;;;;;;22.15;16.25;;;;;;;;;;4992296;28;20394;-64
2023/04/17 08:34:18;;;;;;;22.38;16.67;;;;;;;;;;4992021;28;20027;-64
2023/04/17 08:36:45;;;;;;;25.48;17.50;;;;;;;;;;4992092;28;20089;-64
2023/04/17 08:39:13;;;;;;;20.83;15.70;;;;;;;;;;4992257;28;20034;-64
2023/04/17 08:41:42;;;;;;;23.33;17.08;;;;;;;;;;4991879;28;20033;-64
2023/04/17 08:44:08;;;;;;;21.20;16.02;;;;;;;;;;4992104;28;20040;-64
2023/04/17 08:46:35;;;;;;;21.95;17.15;;;;;;;;;;4991829;28;20453;-64
2023/04/17 08:49:02;;;;;;;24.67;17.38;;;;;;;;;;4992243;28;20022;-64
2023/04/17 08:51:28;;;;;;;22.27;15.82;;;;;;;;;;4992392;28;20073;-64
2023/04/17 08:53:55;;;;;;;23.25;17.27;;;;;;;;;;4976512;28;20019;-63
2023/04/17 08:56:21;;;;;;;23.42;16.85;;;;;;;;;;4972449;28;20070;-64
2023/04/17 08:58:47;;;;;;;23.30;17.10;;;;;;;;;;4972430;28;20493;-64
2023/04/17 09:01:19;;;;;;;24.00;16.25;;;;;;;;;;4972552;28;20154;-64
2023/04/17 09:03:50;;;;;;;23.38;16.27;;;;;;;;;;4972260;28;20042;-64
2023/04/17 09:06:16;;;;;;;23.77;16.65;;;;;;;;;;4972314;28;20089;-64
2023/04/17 09:08:55;;;;;;;22.08;16.58;;;;;;;;;;4972216;28;20042;-64
2023/04/17 09:11:21;;;;;;;23.70;16.20;;;;;;;;;;4972576;28;20093;-64
2023/04/17 09:13:47;;;;;;;21.13;16.50;;;;;;;;;;4972125;28;20472;-64
2023/04/17 09:16:18;;;;;;;24.27;16.63;;;;;;;;;;4972239;28;20031;-64
2023/04/17 09:18:48;;;;;;;23.58;16.42;;;;;;;;;;4972069;28;20110;-64
2023/04/17 09:21:15;;;;;;;21.85;16.23;;;;;;;;;;4972061;28;20026;-65
2023/04/17 09:23:47;;;;;;;21.45;16.08;;;;;;;;;;4970896;28;20383;-64
2023/04/17 09:26:14;;;;;;;23.10;16.58;;;;;;;;;;4972101;28;20043;-64
2023/04/17 09:28:42;;;;;;;21.38;16.23;;;;;;;;;;4971897;28;20074;-64
2023/04/17 09:31:17;;;;;;;23.13;15.90;;;;;;;;;;4972362;28;20039;-63
2023/04/17 09:33:59;;;;;;;22.20;16.23;;;;;;;;;;4972030;28;20023;-64
2023/04/17 09:36:26;;;;;;;23.00;16.00;;;;;;;;;;4972075;28;20333;-64
2023/04/17 09:38:52;;;;;;;19.52;15.32;;;;;;;;;;4972089;28;20050;-63
2023/04/17 09:41:38;;;;;;;21.98;16.10;;;;;;;;;;4972249;28;20027;-64
2023/04/17 09:44:05;;;;;;;18.90;15.25;;;;;;;;;;4971939;28;20410;-64
2023/04/17 09:46:31;;;;;;;23.45;17.00;;;;;;;;;;4981718;28;20036;-64
2023/04/17 09:49:00;;;;;;;22.67;15.60;;;;;;;;;;4995762;28;20105;-64
2023/04/17 09:51:26;;;;;;;19.77;15.23;;;;;;;;;;4995614;28;20037;-64
2023/04/17 09:53:55;;;;;;;20.55;15.13;;;;;;;;;;4994850;28;20029;-64
2023/04/17 09:56:23;;;;;;;20.02;15.20;;;;;;;;;;4995193;28;20041;-64
2023/04/17 09:58:49;;;;;;;19.77;15.50;;;;;;;;;;4994746;28;20026;-64
2023/04/17 10:01:15;;;;;;;20.65;15.10;;;;;;;;;;4995090;28;20034;-63
2023/04/17 10:03:42;;;;;;;19.70;15.57;;;;;;;;;;4994961;28;20104;-64
2023/04/17 10:06:09;;;;;;;20.23;15.60;;;;;;;;;;4994841;28;20553;-64
2023/04/17 10:08:35;;;;;;;20.77;16.35;;;;;;;;;;4994614;28;20029;-64
2023/04/17 10:11:03;;;;;;;17.38;14.20;;;;;;;;;;4995227;28;20026;-63
2023/04/17 10:13:29;;;;;;;19.92;15.40;;;;;;;;;;4994956;28;20034;-64
2023/04/17 10:15:55;;;;;;;22.35;15.68;;;;;;;;;;4994692;28;20085;-64
2023/04/17 10:18:22;;;;;;;19.58;14.95;;;;;;;;;;4991878;28;20112;-63
2023/04/17 10:20:49;;;;;;;19.63;15.60;;;;;;;;;;4980735;28;20019;-63
2023/04/17 10:23:33;;;;;;;18.80;15.55;;;;;;;;;;4977601;28;20069;-64
2023/04/17 10:26:23;;;;;;;21.60;14.90;;;;;;;;;;4974587;28;20038;-64
2023/04/17 10:28:50;;;;;;;20.95;14.73;;;;;;;;;;4982880;28;20042;-64
2023/04/17 10:31:16;;;;;;;19.35;14.65;;;;;;;;;;4978332;28;20031;-64
2023/04/17 10:33:53;;;;;;;18.90;14.75;;;;;;;;;;4990106;28;20050;-65
2023/04/17 10:36:37;;;;;;;26.30;19.83;;;;;;;;;;4974322;28;20030;-64
2023/04/17 10:39:16;;;;;;;22.33;16.65;;;;;;;;;;4988227;28;20043;-63
2023/04/17 10:42:01;;;;;;;23.52;16.45;;;;;;;;;;4977100;28;20073;-64
2023/04/17 10:44:27;;;;;;;21.25;16.05;;;;;;;;;;4984988;28;20045;-64
2023/04/17 10:46:53;;;;;;;18.98;15.45;;;;;;;;;;4986449;28;20034;-64
2023/04/17 10:49:22;;;;;;;19.45;15.35;;;;;;;;;;4977576;28;20523;-63
2023/04/17 10:51:48;;;;;;;18.88;14.82;;;;;;;;;;4962173;28;20026;-63
2023/04/17 10:54:14;;;;;;;20.27;14.80;;;;;;;;;;4986244;28;20397;-63
2023/04/17 10:56:47;;;;;;;20.98;15.18;;;;;;;;;;4984158;28;20054;-63
2023/04/17 10:59:15;;;;;;;19.40;14.73;;;;;;;;;;4978170;28;20510;-63
2023/04/17 11:01:47;;;;;;;18.77;13.90;;;;;;;;;;4992249;28;20061;-63
2023/04/17 11:04:20;;;;;;;17.27;13.57;;;;;;;;;;4992730;28;20430;-63
2023/04/17 11:06:46;;;;;;;20.20;14.00;;;;;;;;;;4993594;28;20038;-63
2023/04/17 11:09:13;;;;;;;18.52;14.45;;;;;;;;;;4993867;28;20046;-63
2023/04/17 11:11:40;;;;;;;18.02;14.18;;;;;;;;;;4989251;28;20057;-64
2023/04/17 11:14:26;;;;;;;16.40;13.23;;;;;;;;;;4977759;28;20503;-63
2023/04/17 11:16:52;;;;;;;17.58;13.35;;;;;;;;;;4978967;28;20058;-63
2023/04/17 11:19:20;;;;;;;17.65;13.85;;;;;;;;;;4976900;28;20053;-63
2023/04/17 11:21:47;;;;;;;18.73;13.10;;;;;;;;;;4989318;28;20114;-63
2023/04/17 11:24:13;;;;;;;16.15;12.73;;;;;;;;;;4993477;28;20029;-64
2023/04/17 11:26:46;;;;;;;15.95;12.23;;;;;;;;;;4993252;28;20038;-63
2023/04/17 11:29:15;;;;;;;15.15;12.48;;;;;;;;;;4987336;28;20030;-63
2023/04/17 11:31:41;;;;;;;16.00;12.68;;;;;;;;;;4982037;28;20547;-64
2023/04/17 11:34:08;;;;;;;16.00;12.50;;;;;;;;;;4981093;28;20026;-64
2023/04/17 11:36:34;;;;;;;18.38;13.77;;;;;;;;;;4974368;28;20038;-64
2023/04/17 11:39:00;;;;;;;15.98;12.90;;;;;;;;;;4980555;28;20019;-64
2023/04/17 11:41:41;;;;;;;16.17;12.35;;;;;;;;;;4981997;28;20034;-63
2023/04/17 11:44:13;;;;;;;16.95;13.13;;;;;;;;;;4980003;28;20039;-63
2023/04/17 11:46:39;;;;;;;16.33;12.43;;;;;;;;;;4980463;28;20034;-63
2023/04/17 11:49:06;;;;;;;15.45;12.60;;;;;;;;;;4982107;28;20480;-63
2023/04/17 11:51:32;;;;;;;17.17;12.38;;;;;;;;;;4980593;28;20487;-64
2023/04/17 11:53:58;;;;;;;16.25;11.82;;;;;;;;;;4980818;28;20015;-64
2023/04/17 11:56:28;;;;;;;15.45;11.60;;;;;;;;;;4982022;28;20033;-64
2023/04/17 11:58:59;;;;;;;15.75;12.40;;;;;;;;;;4982309;28;20054;-63
2023/04/17 12:01:25;;;;;;;15.35;11.77;;;;;;;;;;4979263;28;20092;-64
2023/04/17 12:03:55;;;;;;;14.60;11.45;;;;;;;;;;4980609;28;20041;-64
2023/04/17 12:06:23;;;;;;;14.73;11.43;;;;;;;;;;4978466;28;20031;-63
2023/04/17 12:08:50;;;;;;;15.73;11.68;;;;;;;;;;4980453;28;20482;-63
2023/04/17 12:11:29;;;;;;;13.15;11.30;;;;;;;;;;4982364;28;20081;-63
2023/04/17 12:13:55;;;;;;;15.77;11.80;;;;;;;;;;4973069;28;20109;-63
2023/04/17 12:16:23;;;;;;;14.05;11.55;;;;;;;;;;4974870;28;20026;-64
2023/04/17 12:18:49;;;;;;;13.77;10.73;;;;;;;;;;4980414;28;20050;-63
2023/04/17 12:21:15;;;;;;;16.45;11.18;;;;;;;;;;4982056;28;20030;-63
2023/04/17 12:23:41;;;;;;;13.98;11.35;;;;;;;;;;4974008;28;20030;-63
2023/04/17 12:26:08;;;;;;;14.32;11.27;;;;;;;;;;4987408;28;20045;-63
2023/04/17 12:28:34;;;;;;;15.30;10.63;;;;;;;;;;4972693;28;20030;-66
2023/04/17 12:31:00;;;;;;;15.07;11.35;;;;;;;;;;4973139;28;20027;-64
2023/04/17 12:33:26;;;;;;;13.02;10.90;;;;;;;;;;4971687;28;20035;-64
2023/04/17 12:35:52;;;;;;;12.80;10.35;;;;;;;;;;4987090;28;20105;-64
2023/04/17 12:38:18;;;;;;;14.02;10.75;;;;;;;;;;4992240;28;20037;-64
2023/04/17 12:40:44;;;;;;;15.35;11.63;;;;;;;;;;4991861;28;20102;-64
2023/04/17 12:43:10;;;;;;;17.55;11.82;;;;;;;;;;4991976;28;20064;-64
2023/04/17 12:45:37;;;;;;;14.90;11.25;;;;;;;;;;4991647;28;20045;-63
2023/04/17 12:48:03;;;;;;;13.38;11.15;;;;;;;;;;4992051;28;20434;-64
2023/04/17 12:50:29;;;;;;;14.70;11.35;;;;;;;;;;4992477;28;20406;-64
2023/04/17 12:52:55;;;;;;;13.48;10.77;;;;;;;;;;4991762;28;20050;-64
2023/04/17 12:55:21;;;;;;;14.32;11.15;;;;;;;;;;4991966;28;20785;-64
2023/04/17 12:57:47;;;;;;;12.65;11.02;;;;;;;;;;4991630;28;20028;-63
2023/04/17 13:00:13;;;;;;;14.10;11.00;;;;;;;;;;4991731;28;20105;-63
2023/04/17 13:02:39;;;;;;;14.73;11.05;;;;;;;;;;4991673;28;20026;-63
2023/04/17 13:05:06;;;;;;;14.80;11.18;;;;;;;;;;4991777;28;20105;-63
2023/04/17 13:07:32;;;;;;;14.73;11.38;;;;;;;;;;4991504;28;20058;-63
2023/04/17 13:09:58;;;;;;;14.10;11.18;;;;;;;;;;4992073;28;20386;-63
2023/04/17 13:12:25;;;;;;;13.10;10.52;;;;;;;;;;4990840;28;20096;-64
2023/04/17 13:14:51;;;;;;;14.07;10.85;;;;;;;;;;4991456;28;20503;-63
2023/04/17 13:17:17;;;;;;;15.52;12.02;;;;;;;;;;4990480;28;20026;-63
2023/04/17 13:19:43;;;;;;;13.77;11.63;;;;;;;;;;4991243;28;20030;-63
2023/04/17 13:22:09;;;;;;;14.27;12.43;;;;;;;;;;4994405;28;20130;-63
2023/04/17 13:24:35;;;;;;;19.55;12.23;;;;;;;;;;4995402;28;20034;-64
2023/04/17 13:27:02;;;;;;;14.18;11.75;;;;;;;;;;4995734;28;20541;-64
2023/04/17 13:29:28;;;;;;;14.57;12.02;;;;;;;;;;4995825;28;20413;-64
2023/04/17 13:31:54;;;;;;;14.43;11.27;;;;;;;;;;4995448;28;20120;-63
2023/04/17 13:34:20;;;;;;;15.95;11.95;;;;;;;;;;4995597;28;20486;-63
2023/04/17 13:36:46;;;;;;;16.83;12.00;;;;;;;;;;4995344;28;20106;-63
2023/04/17 13:39:13;;;;;;;15.50;12.70;;;;;;;;;;4985715;28;20027;-63
2023/04/17 13:41:39;;;;;;;14.93;12.02;;;;;;;;;;4975683;28;20027;-64
2023/04/17 13:44:05;;;;;;;16.52;13.50;;;;;;;;;;4976102;28;20041;-64
2023/04/17 13:46:32;;;;;;;15.38;12.73;;;;;;;;;;4978537;28;20030;-64
2023/04/17 13:48:59;;;;;;;15.60;13.07;;;;;;;;;;4995603;28;20177;-64
2023/04/17 13:51:26;;;;;;;16.25;13.00;;;;;;;;;;4991862;28;20033;-64
2023/04/17 13:53:52;;;;;;;16.00;13.70;;;;;;;;;;4975466;28;20066;-64
2023/04/17 13:56:19;;;;;;;17.83;13.43;;;;;;;;;;4975725;28;20360;-64
2023/04/17 13:58:46;;;;;;;16.60;13.43;;;;;;;;;;4983368;28;20043;-64
2023/04/17 14:01:12;;;;;;;14.98;12.88;;;;;;;;;;4985488;28;20027;-63
2023/04/17 14:03:39;;;;;;;16.33;14.13;;;;;;;;;;4977817;28;20034;-64
2023/04/17 14:06:05;;;;;;;14.68;12.73;;;;;;;;;;4990657;28;20061;-64
2023/04/17 14:08:31;;;;;;;16.90;13.80;;;;;;;;;;4984332;28;20510;-63
2023/04/17 14:10:57;;;;;;;16.85;14.05;;;;;;;;;;4984063;28;20514;-63
2023/04/17 14:13:23;;;;;;;15.35;13.43;;;;;;;;;;4984481;28;20109;-63
2023/04/17 14:15:52;;;;;;;16.90;14.80;;;;;;;;;;4979061;28;20375;-63
2023/04/17 14:18:18;;;;;;;16.65;13.88;;;;;;;;;;4984747;28;20030;-63
2023/04/17 14:20:44;;;;;;;17.95;14.52;;;;;;;;;;4982794;28;20019;-64
2023/04/17 14:23:10;;;;;;;17.20;14.65;;;;;;;;;;4983598;28;20077;-64
2023/04/17 14:25:37;;;;;;;18.75;14.65;;;;;;;;;;4983870;28;20507;-64